Time;durP1;ratioP1;P1;durP2;ratioP2;P2;SDS_P1;SDS_P2;PMS_P1;PMS_P2;Temp;Humidity;BMP_temperature;BMP_pressure;BME280_temperature;BME280_humidity;BME280_pressure;Samples;Min_cycle;Max_cycle;Signal;HPM_P1;HPM_P2
2023/08/10 00:01:46;;;;;;;7.47;4.72;;;;;;;14.67;100.00;99636.44;5137507;28;20417;-65
2023/08/10 00:04:12;;;;;;;6.20;3.30;;;;;;;14.62;100.00;99597.34;5137804;28;20138;-63
2023/08/10 00:06:38;;;;;;;7.65;3.72;;;;;;;14.70;100.00;99594.28;5137453;28;20055;-62
2023/08/10 00:09:04;;;;;;;7.40;3.80;;;;;;;14.76;100.00;99620.34;5137642;27;20051;-63
2023/08/10 00:11:30;;;;;;;6.95;3.38;;;;;;;14.51;100.00;99570.47;5137300;28;20100;-65
2023/08/10 00:13:56;;;;;;;3.78;2.88;;;;;;;14.54;100.00;99549.59;5137410;28;20050;-65
2023/08/10 00:16:22;;;;;;;4.13;2.85;;;;;;;14.62;100.00;99518.13;5137125;28;20051;-63
2023/08/10 00:18:48;;;;;;;6.10;3.13;;;;;;;14.74;100.00;99515.06;5137643;28;20050;-62
2023/08/10 00:21:15;;;;;;;6.85;3.92;;;;;;;14.70;100.00;99557.63;5137367;28;20328;-64
2023/08/10 00:23:41;;;;;;;5.90;3.33;;;;;;;14.78;100.00;99548.97;5137327;28;20139;-65
2023/08/10 00:26:08;;;;;;;6.10;3.58;;;;;;;14.66;100.00;99542.97;5137138;28;20548;-65
2023/08/10 00:28:34;;;;;;;7.63;3.42;;;;;;;14.77;100.00;99532.81;5137194;28;20062;-65
2023/08/10 00:31:00;;;;;;;4.20;3.38;;;;;;;14.79;100.00;99535.97;5137430;28;20046;-65
2023/08/10 00:33:25;;;;;;;5.32;3.00;;;;;;;14.83;100.00;99507.25;5139545;27;20071;-63
2023/08/10 00:35:51;;;;;;;4.30;3.10;;;;;;;14.69;100.00;99520.13;5140908;28;20427;-62
2023/08/10 00:38:17;;;;;;;5.38;3.55;;;;;;;14.71;100.00;99487.44;5140477;27;20054;-62
2023/08/10 00:40:44;;;;;;;5.57;3.38;;;;;;;14.82;100.00;99485.53;5141044;28;20138;-63
2023/08/10 00:43:10;;;;;;;3.75;3.30;;;;;;;14.74;100.00;99437.78;5140615;28;20137;-62
2023/08/10 00:45:38;;;;;;;8.93;3.28;;;;;;;14.94;100.00;99437.50;5140988;28;20093;-64
2023/08/10 00:48:04;;;;;;;6.55;3.38;;;;;;;14.77;100.00;99392.84;5140426;28;20446;-63
2023/08/10 00:50:30;;;;;;;4.70;2.85;;;;;;;14.68;100.00;99386.91;5140409;28;20047;-65
2023/08/10 00:52:56;;;;;;;8.27;3.42;;;;;;;14.81;100.00;99417.72;5140687;28;20150;-62
2023/08/10 00:55:22;;;;;;;7.00;3.20;;;;;;;14.87;100.00;99482.41;5140614;28;20089;-65
2023/08/10 00:57:49;;;;;;;7.85;2.78;;;;;;;14.82;100.00;99468.97;5140189;28;20054;-65
2023/08/10 01:00:15;;;;;;;4.20;3.00;;;;;;;14.71;100.00;99448.81;5140434;28;20084;-65
2023/08/10 01:02:41;;;;;;;5.03;3.05;;;;;;;14.87;100.00;99438.25;5140652;28;20130;-62
2023/08/10 01:05:10;;;;;;;4.15;3.03;;;;;;;14.74;100.00;99392.84;5140301;28;20329;-63
2023/08/10 01:07:44;;;;;;;7.95;2.95;;;;;;;14.81;100.00;99357.00;5140565;27;20055;-64
2023/08/10 01:10:19;;;;;;;4.25;2.90;;;;;;;14.78;100.00;99349.50;5140060;28;20491;-64
2023/08/10 01:12:51;;;;;;;8.48;3.22;;;;;;;14.47;100.00;99414.34;5140544;28;20043;-65
2023/08/10 01:15:30;;;;;;;6.47;3.25;;;;;;;14.66;100.00;99405.81;5140099;28;20054;-63
2023/08/10 01:18:02;;;;;;;6.65;3.00;;;;;;;14.86;100.00;99409.06;5140127;28;20512;-65
2023/08/10 01:20:30;;;;;;;3.13;2.50;;;;;;;14.78;100.00;99451.59;5140320;28;20138;-63
2023/08/10 01:23:08;;;;;;;6.22;2.80;;;;;;;14.81;100.00;99443.34;5140052;28;20051;-65
2023/08/10 01:25:35;;;;;;;7.40;3.28;;;;;;;14.97;100.00;99473.41;5140308;28;20192;-66
2023/08/10 01:28:01;;;;;;;5.07;2.90;;;;;;;15.03;100.00;99411.13;5139927;28;20310;-64
2023/08/10 01:30:27;;;;;;;5.93;2.95;;;;;;;14.73;100.00;99334.09;5140264;28;20301;-64
2023/08/10 01:32:53;;;;;;;3.10;2.78;;;;;;;14.88;100.00;99362.53;5139805;28;20047;-63
2023/08/10 01:35:19;;;;;;;6.85;3.00;;;;;;;14.95;100.00;99292.75;5140156;28;20058;-62
2023/08/10 01:37:45;;;;;;;6.47;2.42;;;;;;;14.82;100.00;99273.78;5139832;27;20133;-63
2023/08/10 01:40:13;;;;;;;4.05;2.92;;;;;;;14.76;100.00;99304.91;5139852;28;20051;-64
2023/08/10 01:42:40;;;;;;;5.38;3.17;;;;;;;14.57;100.00;99289.50;5139927;28;20051;-65
2023/08/10 01:45:08;;;;;;;7.53;2.75;;;;;;;14.86;100.00;99329.03;5139075;27;20051;-65
2023/08/10 01:47:36;;;;;;;4.70;2.88;;;;;;;14.76;100.00;99299.41;5139933;28;20120;-66
2023/08/10 01:50:06;;;;;;;6.65;2.80;;;;;;;14.71;100.00;99313.59;5139605;28;20137;-63
2023/08/10 01:52:36;;;;;;;5.55;3.13;;;;;;;14.79;100.00;99327.03;5139899;28;20047;-65
2023/08/10 01:55:04;;;;;;;3.90;2.47;;;;;;;14.94;100.00;99307.75;5139502;28;20420;-64
2023/08/10 01:57:30;;;;;;;3.80;3.30;;;;;;;14.95;100.00;99312.88;5139806;28;20329;-64
2023/08/10 01:59:57;;;;;;;7.68;3.10;;;;;;;14.74;100.00;99390.88;5139306;28;20137;-64
2023/08/10 02:02:23;;;;;;;8.35;3.25;;;;;;;14.78;100.00;99407.44;5139588;28;20372;-62
2023/08/10 02:04:49;;;;;;;6.18;3.22;;;;;;;14.72;100.00;99484.28;5139267;28;20415;-63
2023/08/10 02:07:15;;;;;;;4.38;2.95;;;;;;;14.69;100.00;99509.09;5139146;27;20413;-65
2023/08/10 02:09:41;;;;;;;7.40;2.90;;;;;;;14.65;100.00;99517.34;5139252;28;20095;-65
2023/08/10 02:12:07;;;;;;;4.82;3.00;;;;;;;14.62;100.00;99537.44;5139289;28;20055;-65
2023/08/10 02:14:33;;;;;;;3.80;2.60;;;;;;;14.38;100.00;99546.28;5139465;28;20090;-66
2023/08/10 02:16:59;;;;;;;3.72;2.60;;;;;;;14.60;100.00;99567.41;5139065;28;20142;-65
2023/08/10 02:19:25;;;;;;;6.90;2.92;;;;;;;14.55;100.00;99551.19;5139444;28;20138;-64
2023/08/10 02:21:51;;;;;;;6.40;3.58;;;;;;;14.32;100.00;99508.00;5139073;28;20137;-65
2023/08/10 02:24:17;;;;;;;7.22;3.65;;;;;;;14.38;100.00;99535.25;5139353;28;20050;-66
2023/08/10 02:26:43;;;;;;;3.92;2.70;;;;;;;14.40;100.00;99530.16;5138855;28;20142;-65
2023/08/10 02:29:09;;;;;;;3.10;2.55;;;;;;;14.46;100.00;99482.53;5139363;28;20042;-64
2023/08/10 02:31:35;;;;;;;4.60;2.42;;;;;;;14.58;100.00;99465.66;5138723;28;20047;-63
2023/08/10 02:34:03;;;;;;;4.03;2.50;;;;;;;14.76;100.00;99401.50;5139043;28;20145;-64
2023/08/10 02:36:29;;;;;;;4.65;2.53;;;;;;;15.06;100.00;99293.56;5138953;28;20082;-62
2023/08/10 02:38:55;;;;;;;3.60;2.38;;;;;;;15.10;100.00;99266.75;5138826;27;20057;-64
2023/08/10 02:41:21;;;;;;;4.55;2.65;;;;;;;14.94;100.00;99217.44;5138973;28;20055;-65
2023/08/10 02:43:47;;;;;;;3.03;2.65;;;;;;;14.69;100.00;99244.19;5138798;28;20146;-64
2023/08/10 02:46:13;;;;;;;5.45;2.30;;;;;;;14.46;100.00;99259.09;5138933;28;20051;-63
2023/08/10 02:48:39;;;;;;;5.25;2.75;;;;;;;15.03;100.00;99288.84;5138749;28;20438;-64
2023/08/10 02:51:06;;;;;;;3.20;2.33;;;;;;;15.22;100.00;99166.94;5138948;28;20061;-63
2023/08/10 02:53:32;;;;;;;7.50;3.15;;;;;;;14.80;100.00;99140.16;5138564;28;20047;-62
2023/08/10 02:55:57;;;;;;;3.47;2.70;;;;;;;15.09;100.00;99047.03;5137754;27;20085;-63
2023/08/10 02:58:24;;;;;;;3.78;2.58;;;;;;;15.13;100.00;99023.00;5138434;28;20416;-64
2023/08/10 03:00:50;;;;;;;2.97;2.58;;;;;;;15.44;100.00;98990.91;5138834;28;20050;-62
2023/08/10 03:03:17;;;;;;;5.47;2.70;;;;;;;15.45;100.00;98942.75;5138344;28;20408;-63
2023/08/10 03:05:43;;;;;;;4.72;3.60;;;;;;;15.29;100.00;99008.72;5138200;28;20149;-64
2023/08/10 03:08:10;;;;;;;3.55;2.53;;;;;;;15.20;100.00;99002.84;5138263;27;20047;-65
2023/08/10 03:10:36;;;;;;;2.72;2.20;;;;;;;15.22;100.00;99022.56;5138381;28;20062;-64
2023/08/10 03:13:02;;;;;;;5.25;2.53;;;;;;;15.33;100.00;99004.00;5138446;28;20051;-62
2023/08/10 03:15:28;;;;;;;5.65;2.70;;;;;;;15.05;100.00;99027.72;5138169;28;20051;-66
2023/08/10 03:17:54;;;;;;;5.05;2.80;;;;;;;15.54;100.00;98965.22;5138607;28;20141;-64
2023/08/10 03:20:20;;;;;;;3.17;2.45;;;;;;;15.32;100.00;98914.03;5138029;28;20554;-64
2023/08/10 03:22:46;;;;;;;6.60;2.70;;;;;;;16.20;100.00;98850.22;5138390;28;20051;-63
2023/08/10 03:25:14;;;;;;;5.13;2.75;;;;;;;16.62;100.00;98696.75;5137914;28;20048;-62
2023/08/10 03:27:40;;;;;;;2.38;2.17;;;;;;;16.50;100.00;98577.59;5138387;28;20104;-64
2023/08/10 03:30:07;;;;;;;5.82;2.63;;;;;;;17.26;100.00;98503.09;5137828;28;20053;-63
2023/08/10 03:32:33;;;;;;;6.65;2.53;;;;;;;17.50;100.00;98482.44;5138095;28;20061;-64
2023/08/10 03:34:59;;;;;;;4.32;1.90;;;;;;;17.23;100.00;98479.81;5138160;28;20145;-66
2023/08/10 03:37:25;;;;;;;5.03;2.90;;;;;;;17.79;100.00;98499.25;5137881;27;20047;-63
2023/08/10 03:39:52;;;;;;;6.38;2.25;;;;;;;18.12;100.00;98518.72;5137894;28;20058;-66
2023/08/10 03:42:18;;;;;;;3.55;2.58;;;;;;;18.61;100.00;98571.50;5137842;28;20051;-65
2023/08/10 03:44:44;;;;;;;3.05;2.28;;;;;;;18.87;100.00;98605.03;5138070;28;20047;-66
2023/08/10 03:47:10;;;;;;;4.75;2.33;;;;;;;18.49;100.00;98572.16;5137685;28;20154;-65
2023/08/10 03:49:36;;;;;;;3.03;2.45;;;;;;;19.04;100.00;98668.47;5138075;28;20051;-65
2023/08/10 03:52:02;;;;;;;2.42;2.22;;;;;;;19.27;100.00;98703.63;5137649;28;20134;-64
2023/08/10 03:54:30;;;;;;;5.28;2.90;;;;;;;19.10;100.00;98674.28;5137991;28;20043;-65
2023/08/10 03:56:56;;;;;;;2.45;1.95;;;;;;;19.39;100.00;98695.78;5137353;28;20043;-65
2023/08/10 03:59:22;;;;;;;2.30;2.10;;;;;;;19.35;100.00;98736.78;5137877;28;20142;-63
2023/08/10 04:01:48;;;;;;;3.72;2.30;;;;;;;19.80;100.00;98777.81;5137682;28;20137;-63
2023/08/10 04:04:14;;;;;;;4.38;2.38;;;;;;;19.71;100.00;98814.56;5137380;28;20139;-63
2023/08/10 04:06:40;;;;;;;3.10;2.25;;;;;;;19.88;100.00;98835.59;5137395;27;20051;-64
2023/08/10 04:09:06;;;;;;;5.90;2.38;;;;;;;20.04;100.00;98861.84;5137177;27;20123;-65
2023/08/10 04:11:32;;;;;;;3.80;2.25;;;;;;;20.10;100.00;98841.41;5137595;28;20082;-63
2023/08/10 04:13:58;;;;;;;10.50;2.83;;;;;;;20.28;100.00;98862.41;5137562;28;20142;-64
2023/08/10 04:16:26;;;;;;;2.92;2.22;;;;;;;19.89;100.00;98848.31;5137262;28;20055;-66
2023/08/10 04:18:51;;;;;;;7.53;2.80;;;;;;;20.57;100.00;98904.25;5137168;28;20051;-63
2023/08/10 04:21:17;;;;;;;5.40;2.20;;;;;;;20.84;100.00;98954.06;5137563;28;20077;-63
2023/08/10 04:23:43;;;;;;;3.80;2.38;;;;;;;20.95;100.00;98918.31;5136987;28;20043;-65
2023/08/10 04:26:10;;;;;;;4.97;2.50;;;;;;;21.19;100.00;98940.31;5137536;28;20046;-66
2023/08/10 04:28:36;;;;;;;9.90;2.22;;;;;;;21.04;100.00;99004.06;5136981;28;20389;-64
2023/08/10 04:31:01;;;;;;;4.70;2.40;;;;;;;20.96;100.00;98961.69;5137256;28;20042;-65
2023/08/10 04:33:28;;;;;;;7.70;2.47;;;;;;;21.34;100.00;99008.41;5137021;28;20112;-65
2023/08/10 04:35:54;;;;;;;5.53;2.20;;;;;;;20.86;100.00;98941.25;5137185;28;20051;-65
2023/08/10 04:38:20;;;;;;;4.70;2.47;;;;;;;21.63;100.00;99036.28;5137173;27;20351;-67
2023/08/10 04:40:46;;;;;;;3.20;2.40;;;;;;;20.49;100.00;99056.75;5137073;28;20058;-64
2023/08/10 04:43:12;;;;;;;5.95;2.28;;;;;;;21.77;100.00;99029.50;5137067;28;20400;-64
2023/08/10 04:45:38;;;;;;;6.88;2.90;;;;;;;21.54;100.00;99052.88;5137005;28;20051;-65
2023/08/10 04:48:04;;;;;;;3.70;2.10;;;;;;;22.07;100.00;99109.94;5137189;28;20142;-65
2023/08/10 04:50:32;;;;;;;3.22;2.10;;;;;;;22.34;100.00;99100.38;5136855;28;20053;-65
2023/08/10 04:52:57;;;;;;;3.13;2.13;;;;;;;21.99;100.00;99141.28;5137091;28;20051;-67
2023/08/10 04:55:25;;;;;;;5.75;2.60;;;;;;;22.79;100.00;99147.66;5136573;28;20439;-66
2023/08/10 04:57:52;;;;;;;4.95;2.80;;;;;;;22.77;100.00;99158.47;5137075;28;20407;-65
2023/08/10 05:00:18;;;;;;;2.78;2.58;;;;;;;22.76;100.00;99192.47;5136852;28;20051;-65
2023/08/10 05:02:44;;;;;;;5.38;2.00;;;;;;;21.97;100.00;99132.59;5136559;28;20051;-67
2023/08/10 05:05:11;;;;;;;2.30;1.98;;;;;;;21.80;100.00;99132.66;5136714;28;20058;-65
2023/08/10 05:07:38;;;;;;;3.35;2.60;;;;;;;19.98;100.00;99015.41;5136635;27;20055;-64
2023/08/10 05:10:06;;;;;;;6.80;2.13;;;;;;;20.09;100.00;98997.66;5136726;28;20101;-67
2023/08/10 05:12:34;;;;;;;8.35;2.42;;;;;;;21.00;100.00;99043.19;5136380;28;20135;-65
2023/08/10 05:15:00;;;;;;;3.65;2.60;;;;;;;20.79;100.00;99007.50;5136668;28;20047;-64
2023/08/10 05:17:26;;;;;;;4.78;2.35;;;;;;;20.31;100.00;98978.47;5136258;28;20365;-66
2023/08/10 05:19:52;;;;;;;6.95;2.75;;;;;;;20.62;100.00;98951.03;5138081;27;20412;-67
2023/08/10 05:22:19;;;;;;;2.90;2.53;;;;;;;20.47;100.00;98963.75;5139850;28;20089;-67
2023/08/10 05:24:46;;;;;;;5.25;2.50;;;;;;;20.75;100.00;98967.81;5140223;28;20051;-64
2023/08/10 05:27:12;;;;;;;6.88;2.83;;;;;;;21.04;100.00;98993.69;5139893;28;20050;-64
2023/08/10 05:29:38;;;;;;;5.30;2.92;;;;;;;21.81;100.00;99091.56;5140015;28;20141;-64
2023/08/10 05:32:04;;;;;;;9.05;3.03;;;;;;;22.42;100.00;99142.81;5139836;28;20051;-67
2023/08/10 05:34:30;;;;;;;6.55;2.75;;;;;;;20.68;100.00;99108.84;5139798;28;20051;-65
2023/08/10 05:36:56;;;;;;;4.88;2.92;;;;;;;20.84;100.00;98985.47;5139914;28;20309;-65
2023/08/10 05:39:23;;;;;;;5.20;2.63;;;;;;;21.63;100.00;99075.34;5139362;27;20448;-66
2023/08/10 05:41:50;;;;;;;3.63;2.25;;;;;;;22.54;100.00;99151.22;5139600;28;20058;-64
2023/08/10 05:44:16;;;;;;;11.68;3.15;;;;;;;24.02;100.00;99177.88;5139319;28;20134;-64
2023/08/10 05:46:42;;;;;;;6.03;2.60;;;;;;;23.49;100.00;99203.69;5139875;28;20108;-65
2023/08/10 05:49:08;;;;;;;4.30;2.38;;;;;;;24.63;100.00;99224.81;5139407;28;20051;-67
2023/08/10 05:51:34;;;;;;;8.98;4.03;;;;;;;25.17;100.00;99233.16;5139776;28;20131;-67
2023/08/10 05:53:59;;;;;;;5.63;3.60;;;;;;;25.85;100.00;99239.53;5139111;28;20378;-65
2023/08/10 05:56:26;;;;;;;7.72;3.05;;;;;;;25.00;100.00;99238.22;5139420;28;20058;-65
2023/08/10 05:58:52;;;;;;;12.93;3.15;;;;;;;25.52;100.00;99239.31;5139226;28;20057;-65
2023/08/10 06:01:18;;;;;;;7.90;3.25;;;;;;;25.72;100.00;99255.72;5138941;28;20058;-65
2023/08/10 06:03:44;;;;;;;4.90;3.08;;;;;;;24.84;100.00;99245.63;5139083;28;20047;-67
2023/08/10 06:06:10;;;;;;;6.15;2.92;;;;;;;24.28;100.00;99246.50;5138827;28;20484;-65
2023/08/10 06:08:36;;;;;;;3.55;2.42;;;;;;;25.29;100.00;99258.28;5139166;27;20107;-66
2023/08/10 06:11:03;;;;;;;8.82;2.85;;;;;;;25.04;100.00;99231.22;5138929;28;20149;-69
2023/08/10 06:13:30;;;;;;;6.20;3.00;;;;;;;24.34;100.00;99211.06;5139168;28;20043;-66
2023/08/10 06:15:57;;;;;;;8.18;3.08;;;;;;;24.83;100.00;99218.06;5138856;28;20047;-65
2023/08/10 06:18:25;;;;;;;4.07;2.72;;;;;;;24.92;100.00;99242.53;5139141;28;20055;-65
2023/08/10 06:20:51;;;;;;;4.90;3.22;;;;;;;24.93;100.00;99250.50;5138739;28;20055;-64
2023/08/10 06:23:17;;;;;;;5.88;3.38;;;;;;;25.71;100.00;99256.97;5139083;28;20129;-63
2023/08/10 06:25:43;;;;;;;6.72;2.63;;;;;;;26.07;100.00;99261.84;5138983;28;20384;-64
2023/08/10 06:28:09;;;;;;;9.02;3.28;;;;;;;26.55;100.00;99278.22;5138573;28;20055;-63
2023/08/10 06:30:35;;;;;;;14.93;3.60;;;;;;;26.67;100.00;99292.09;5138835;27;20097;-64
2023/08/10 06:33:02;;;;;;;4.68;3.15;;;;;;;26.95;100.00;99286.38;5138739;28;20054;-64
2023/08/10 06:35:28;;;;;;;5.32;3.22;;;;;;;27.68;100.00;99276.81;5138906;28;20074;-64
2023/08/10 06:37:55;;;;;;;6.85;3.30;;;;;;;27.02;100.00;99280.41;5138519;27;20059;-66
2023/08/10 06:40:21;;;;;;;7.72;3.13;;;;;;;26.79;100.00;99278.31;5138598;28;20051;-65
2023/08/10 06:42:47;;;;;;;5.43;3.63;;;;;;;26.28;100.00;99274.94;5138305;28;20059;-65
2023/08/10 06:45:13;;;;;;;6.53;2.90;;;;;;;26.47;100.00;99274.94;5138668;28;20051;-64
2023/08/10 06:47:40;;;;;;;10.27;3.33;;;;;;;26.85;100.00;99288.44;5138388;28;20416;-67
2023/08/10 06:50:08;;;;;;;10.18;3.38;;;;;;;26.11;100.00;99299.00;5138708;28;20105;-66
2023/08/10 06:52:34;;;;;;;6.03;3.40;;;;;;;27.71;100.00;99312.47;5138068;28;20069;-64
2023/08/10 06:54:59;;;;;;;5.72;3.90;;;;;;;27.71;100.00;99298.41;5138025;28;20420;-66
2023/08/10 06:57:25;;;;;;;13.02;3.47;;;;;;;27.83;100.00;99308.69;5138267;28;20043;-66
2023/08/10 06:59:51;;;;;;;5.63;2.60;;;;;;;28.14;100.00;99308.28;5138087;28;20058;-65
2023/08/10 07:02:17;;;;;;;12.77;4.10;;;;;;;28.07;100.00;99307.88;5138036;28;20480;-64
2023/08/10 07:04:45;;;;;;;8.00;3.47;;;;;;;27.82;100.00;99315.56;5137971;28;20050;-63
2023/08/10 07:07:14;;;;;;;11.07;3.10;;;;;;;28.83;97.31;99317.53;5138090;27;20047;-64
2023/08/10 07:09:41;;;;;;;6.28;3.40;;;;;;;27.79;100.00;99324.19;5138447;28;20051;-62
2023/08/10 07:12:07;;;;;;;8.50;4.03;;;;;;;27.55;100.00;99315.69;5138892;28;20423;-64
2023/08/10 07:14:33;;;;;;;5.90;3.17;;;;;;;28.56;98.77;99318.63;5138428;28;20106;-65
2023/08/10 07:16:59;;;;;;;8.82;3.50;;;;;;;28.64;100.00;99327.47;5138009;28;20138;-64
2023/08/10 07:19:25;;;;;;;7.55;3.80;;;;;;;28.03;100.00;99329.84;5137955;28;20061;-64
2023/08/10 07:21:55;;;;;;;10.23;3.53;;;;;;;27.51;100.00;99329.19;5138358;28;20080;-61
2023/08/10 07:24:22;;;;;;;5.35;3.50;;;;;;;28.59;97.94;99334.56;5137912;28;20442;-59
2023/08/10 07:26:48;;;;;;;4.88;3.22;;;;;;;29.17;92.75;99337.88;5137980;28;20329;-60
2023/08/10 07:29:14;;;;;;;11.60;4.38;;;;;;;29.04;93.96;99340.25;5137893;28;20141;-64
2023/08/10 07:31:40;;;;;;;6.90;2.88;;;;;;;28.51;97.59;99332.59;5137955;28;20200;-65
2023/08/10 07:34:09;;;;;;;6.53;3.42;;;;;;;29.48;89.11;99347.84;5137886;28;20395;-62
2023/08/10 07:36:35;;;;;;;7.43;3.15;;;;;;;28.36;94.97;99343.84;5137679;28;20047;-62
2023/08/10 07:39:01;;;;;;;8.25;2.95;;;;;;;26.57;100.00;99321.47;5137817;27;20050;-63
2023/08/10 07:41:28;;;;;;;6.00;3.15;;;;;;;29.22;99.53;99342.84;5137509;27;20065;-64
2023/08/10 07:43:54;;;;;;;3.80;2.70;;;;;;;29.77;93.25;99347.81;5137523;28;20054;-64
2023/08/10 07:46:20;;;;;;;9.90;3.10;;;;;;;29.72;90.96;99357.00;5137317;28;20054;-61
2023/08/10 07:48:46;;;;;;;8.35;4.05;;;;;;;27.96;97.62;99352.72;5138130;28;20051;-61
2023/08/10 07:51:12;;;;;;;8.23;3.35;;;;;;;29.51;96.64;99349.69;5137387;28;20051;-61
2023/08/10 07:53:38;;;;;;;7.90;2.90;;;;;;;29.71;91.65;99354.66;5137572;28;20116;-64
2023/08/10 07:56:04;;;;;;;4.95;3.00;;;;;;;28.62;95.28;99349.72;5137536;28;20055;-65
2023/08/10 07:58:31;;;;;;;4.18;3.35;;;;;;;29.47;93.34;99349.91;5137403;28;20137;-66
2023/08/10 08:00:57;;;;;;;7.55;3.40;;;;;;;29.99;89.63;99350.16;5137618;28;20043;-65
2023/08/10 08:03:23;;;;;;;5.13;3.35;;;;;;;28.95;97.25;99340.31;5137295;28;20138;-66
2023/08/10 08:05:49;;;;;;;6.05;3.42;;;;;;;30.44;85.77;99364.09;5137424;28;20099;-62
2023/08/10 08:08:15;;;;;;;7.35;3.30;;;;;;;29.87;86.61;99356.16;5137277;27;20078;-64
2023/08/10 08:10:41;;;;;;;9.60;3.22;;;;;;;29.78;86.74;99360.66;5137613;28;20047;-61
2023/08/10 08:13:08;;;;;;;6.05;3.15;;;;;;;29.51;90.54;99369.47;5137277;28;20174;-61
2023/08/10 08:15:35;;;;;;;3.95;2.90;;;;;;;28.69;98.23;99362.66;5137590;28;20115;-63
2023/08/10 08:18:38;;;;;;;7.57;3.10;;;;;;;29.27;91.88;99355.50;5136902;28;20050;-63
2023/08/10 08:21:05;;;;;;;6.60;2.97;;;;;;;29.84;92.66;99346.59;5137248;28;20051;-61
2023/08/10 08:23:31;;;;;;;5.32;3.17;;;;;;;29.29;99.79;99352.94;5137308;28;20047;-63
2023/08/10 08:25:57;;;;;;;4.80;2.92;;;;;;;30.29;86.53;99369.03;5137024;28;20137;-66
2023/08/10 08:28:23;;;;;;;5.25;3.15;;;;;;;28.42;94.21;99360.88;5137206;28;20082;-64
2023/08/10 08:30:50;;;;;;;4.75;2.92;;;;;;;28.06;100.00;99352.19;5136843;28;20138;-64
2023/08/10 08:33:16;;;;;;;4.10;2.90;;;;;;;29.34;95.05;99357.16;5137122;28;20043;-67
2023/08/10 08:35:45;;;;;;;8.15;3.30;;;;;;;29.07;93.94;99354.16;5136768;28;20200;-63
2023/08/10 08:38:10;;;;;;;4.82;2.92;;;;;;;29.73;88.25;99369.06;5137047;27;20058;-61
2023/08/10 08:40:36;;;;;;;5.32;3.22;;;;;;;29.05;99.33;99367.19;5136604;28;20294;-65
2023/08/10 08:43:04;;;;;;;5.72;3.25;;;;;;;29.97;87.81;99357.56;5137032;28;20051;-67
2023/08/10 08:45:30;;;;;;;3.38;2.60;;;;;;;28.57;90.26;99372.97;5136971;28;20179;-65
2023/08/10 08:47:57;;;;;;;5.55;2.40;;;;;;;28.95;88.11;99374.94;5136684;28;20054;-60
2023/08/10 08:50:24;;;;;;;3.47;2.83;;;;;;;29.64;85.52;99372.78;5136884;28;20332;-65
2023/08/10 08:52:51;;;;;;;5.03;2.83;;;;;;;30.37;89.36;99368.13;5136623;28;20482;-63
2023/08/10 08:55:17;;;;;;;4.07;3.10;;;;;;;28.41;92.81;99365.72;5138896;27;20192;-59
2023/08/10 08:57:44;;;;;;;5.93;3.03;;;;;;;29.37;89.17;99362.59;5140232;28;20043;-66
2023/08/10 09:00:11;;;;;;;6.60;3.10;;;;;;;28.64;95.88;99364.13;5140331;28;20043;-66
2023/08/10 09:02:37;;;;;;;3.20;2.45;;;;;;;28.94;90.82;99372.63;5139958;28;20051;-64
2023/08/10 09:05:04;;;;;;;5.03;4.35;;;;;;;29.36;84.39;99374.34;5140453;28;20326;-61
2023/08/10 09:07:30;;;;;;;5.55;2.63;;;;;;;29.15;87.93;99362.22;5139899;27;20051;-64
2023/08/10 09:09:56;;;;;;;3.03;2.50;;;;;;;29.72;91.63;99371.13;5140410;28;20134;-65
2023/08/10 09:12:30;;;;;;;4.60;2.75;;;;;;;30.11;86.04;99373.69;5140261;28;20146;-61
2023/08/10 09:15:02;;;;;;;3.78;2.70;;;;;;;29.25;89.62;99366.50;5140690;28;20365;-64
2023/08/10 09:17:28;;;;;;;4.30;2.53;;;;;;;27.92;100.00;99356.53;5140242;28;20138;-66
2023/08/10 09:19:54;;;;;;;3.08;2.20;;;;;;;26.80;100.00;99347.38;5139968;28;20437;-64
2023/08/10 09:22:31;;;;;;;2.70;2.08;;;;;;;28.30;99.42;99362.69;5140194;28;20046;-61
2023/08/10 09:24:58;;;;;;;5.43;2.50;;;;;;;28.76;96.89;99351.03;5139713;28;20055;-61
2023/08/10 09:27:25;;;;;;;3.90;2.30;;;;;;;26.87;100.00;99333.75;5140179;28;20381;-62
2023/08/10 09:29:55;;;;;;;4.32;2.25;;;;;;;28.54;100.00;99334.44;5139860;28;20453;-60
2023/08/10 09:32:22;;;;;;;3.17;2.40;;;;;;;28.78;100.00;99342.84;5140036;28;20192;-62
2023/08/10 09:34:48;;;;;;;2.35;2.15;;;;;;;28.06;96.78;99346.56;5139748;28;20089;-64
2023/08/10 09:37:14;;;;;;;3.35;2.45;;;;;;;27.60;100.00;99340.41;5139451;27;20047;-64
2023/08/10 09:39:41;;;;;;;3.88;2.70;;;;;;;28.64;100.00;99338.75;5139692;28;20051;-61
2023/08/10 09:42:07;;;;;;;6.07;5.40;;;;;;;28.67;100.00;99337.00;5139587;28;20207;-59
2023/08/10 09:44:45;;;;;;;2.58;2.38;;;;;;;28.63;95.65;99342.84;5139701;28;20046;-61
2023/08/10 09:47:12;;;;;;;4.05;3.05;;;;;;;29.02;97.41;99343.56;5139358;28;20047;-64
2023/08/10 09:49:39;;;;;;;4.60;2.25;;;;;;;28.90;95.62;99344.59;5139342;28;20061;-61
2023/08/10 09:52:06;;;;;;;3.10;2.60;;;;;;;29.34;99.73;99346.63;5139184;28;20051;-61
2023/08/10 09:54:32;;;;;;;4.32;2.60;;;;;;;28.11;100.00;99345.88;5139695;28;20043;-64
2023/08/10 09:57:00;;;;;;;2.58;2.38;;;;;;;27.92;100.00;99336.81;5139007;28;20051;-60
2023/08/10 09:59:26;;;;;;;3.53;2.55;;;;;;;28.10;100.00;99335.88;5139291;28;20069;-64
2023/08/10 10:01:53;;;;;;;2.85;2.15;;;;;;;28.22;100.00;99328.41;5139282;28;20142;-60
2023/08/10 10:04:19;;;;;;;3.58;2.60;;;;;;;29.01;98.68;99346.84;5139379;28;20270;-64
2023/08/10 10:06:47;;;;;;;4.95;2.25;;;;;;;29.32;97.75;99343.50;5138743;27;20053;-64
2023/08/10 10:09:13;;;;;;;3.30;2.33;;;;;;;29.69;90.17;99351.53;5139087;27;20055;-62
2023/08/10 10:11:41;;;;;;;2.65;2.30;;;;;;;29.48;95.05;99342.97;5139366;28;20047;-65
2023/08/10 10:14:07;;;;;;;2.67;2.38;;;;;;;27.67;100.00;99351.31;5139305;28;20047;-65
2023/08/10 10:16:34;;;;;;;2.05;1.95;;;;;;;27.02;100.00;99336.69;5139364;28;20047;-65
2023/08/10 10:19:01;;;;;;;4.45;2.20;;;;;;;27.41;100.00;99345.34;5138811;28;20141;-65
2023/08/10 10:21:27;;;;;;;4.18;2.05;;;;;;;27.05;100.00;99340.59;5139270;28;20139;-64
2023/08/10 10:23:55;;;;;;;25.40;7.88;;;;;;;26.58;100.00;99325.84;5138706;28;20442;-62
2023/08/10 10:26:21;;;;;;;3.83;3.35;;;;;;;26.31;100.00;99325.84;5139085;28;20051;-63
2023/08/10 10:29:07;;;;;;;2.83;2.42;;;;;;;26.46;100.00;99312.72;5138760;28;20120;-64
2023/08/10 10:31:34;;;;;;;2.38;2.17;;;;;;;26.39;100.00;99298.97;5138674;28;20135;-65
2023/08/10 10:34:02;;;;;;;4.80;3.03;;;;;;;25.66;100.00;99305.28;5138541;28;20129;-64
2023/08/10 10:36:27;;;;;;;2.90;2.40;;;;;;;25.26;100.00;99297.72;5138662;28;20084;-63
2023/08/10 10:38:56;;;;;;;3.60;2.55;;;;;;;26.43;100.00;99283.53;5138635;27;20382;-64
2023/08/10 10:41:32;;;;;;;2.70;2.45;;;;;;;27.77;100.00;99319.03;5138544;28;20135;-64
2023/08/10 10:44:00;;;;;;;2.65;2.38;;;;;;;28.03;100.00;99335.47;5138770;28;20130;-64
2023/08/10 10:46:37;;;;;;;4.28;2.70;;;;;;;28.73;100.00;99337.88;5138444;28;20047;-64
2023/08/10 10:49:06;;;;;;;5.10;2.50;;;;;;;28.88;100.00;99335.81;5138296;28;20055;-60
2023/08/10 10:51:32;;;;;;;3.55;2.38;;;;;;;29.21;95.34;99346.16;5138659;28;20051;-60
2023/08/10 10:53:58;;;;;;;3.05;2.03;;;;;;;29.14;97.38;99346.56;5138538;28;20065;-61
2023/08/10 10:56:25;;;;;;;9.25;2.90;;;;;;;28.76;95.89;99345.38;5138549;28;20447;-63
2023/08/10 10:58:51;;;;;;;4.63;2.25;;;;;;;28.91;100.00;99339.72;5138293;28;20055;-61
2023/08/10 11:01:19;;;;;;;83.00;9.27;;;;;;;28.81;97.78;99342.63;5138549;28;20317;-60
2023/08/10 11:03:51;;;;;;;16.63;3.00;;;;;;;28.72;87.41;99350.41;5138142;28;20047;-60
2023/08/10 11:06:20;;;;;;;165.93;15.55;;;;;;;28.62;98.75;99338.44;5138386;28;20078;-59
2023/08/10 11:08:48;;;;;;;6.70;2.42;;;;;;;28.03;99.49;99336.25;5137814;27;20137;-59
2023/08/10 11:11:14;;;;;;;7.35;2.47;;;;;;;27.92;100.00;99352.91;5138307;28;20051;-64
2023/08/10 11:13:41;;;;;;;4.78;1.88;;;;;;;25.97;100.00;99339.72;5137990;28;20053;-64
2023/08/10 11:16:09;;;;;;;2.45;2.22;;;;;;;25.81;100.00;99335.16;5138190;27;20047;-64
2023/08/10 11:18:37;;;;;;;3.75;2.05;;;;;;;26.35;100.00;99341.28;5137163;28;20115;-64
2023/08/10 11:21:06;;;;;;;3.53;1.98;;;;;;;25.92;100.00;99340.31;5137851;28;20423;-64
2023/08/10 11:23:32;;;;;;;4.00;1.80;;;;;;;25.31;100.00;99342.00;5137803;28;20372;-62
2023/08/10 11:25:58;;;;;;;3.20;2.50;;;;;;;25.76;100.00;99334.97;5137705;28;20061;-61